Station: EBSP - 12/07/2020 17:51Z (il y a 13 minutes)
EBSP 121750Z AUTO 03005KT 350V060 CAVOK 17/07 Q1026
Vent du 030º - 5 kt (vent de direction variable de 350º à 060º)
Visibilité > 10 km et plafond haut ou pas de nuages significatifs
Température: +17ºC - Point de rosée: +07ºC - QNH: 1026 hPa